sensor_id;sensor_type;location;lat;lon;timestamp;P1;durP1;ratioP1;P2;durP2;ratioP2
25509;SDS011;13413;52.336;21.200;2022-08-16T00:00:42;17.60;;;15.80;;
25509;SDS011;13413;52.336;21.200;2022-08-16T00:04:02;19.00;;;17.10;;
25509;SDS011;13413;52.336;21.200;2022-08-16T00:07:22;17.70;;;16.00;;
25509;SDS011;13413;52.336;21.200;2022-08-16T00:10:41;17.90;;;16.20;;
25509;SDS011;13413;52.336;21.200;2022-08-16T00:14:00;19.00;;;16.80;;
25509;SDS011;13413;52.336;21.200;2022-08-16T00:17:20;18.20;;;15.80;;
25509;SDS011;13413;52.336;21.200;2022-08-16T00:20:40;17.90;;;16.30;;
25509;SDS011;13413;52.336;21.200;2022-08-16T00:24:01;17.80;;;16.20;;
25509;SDS011;13413;52.336;21.200;2022-08-16T00:27:22;18.70;;;17.00;;
25509;SDS011;13413;52.336;21.200;2022-08-16T00:30:41;17.80;;;16.20;;
25509;SDS011;13413;52.336;21.200;2022-08-16T00:34:01;17.10;;;15.50;;
25509;SDS011;13413;52.336;21.200;2022-08-16T00:37:21;23.00;;;17.00;;
25509;SDS011;13413;52.336;21.200;2022-08-16T00:40:46;18.10;;;16.40;;
25509;SDS011;13413;52.336;21.200;2022-08-16T00:44:09;19.50;;;16.60;;
25509;SDS011;13413;52.336;21.200;2022-08-16T00:47:30;18.10;;;16.00;;
25509;SDS011;13413;52.336;21.200;2022-08-16T00:50:51;17.50;;;16.00;;
25509;SDS011;13413;52.336;21.200;2022-08-16T00:54:10;18.00;;;16.30;;
25509;SDS011;13413;52.336;21.200;2022-08-16T00:57:30;17.70;;;15.90;;
25509;SDS011;13413;52.336;21.200;2022-08-16T01:00:50;18.30;;;16.40;;
25509;SDS011;13413;52.336;21.200;2022-08-16T01:04:11;17.70;;;16.10;;
25509;SDS011;13413;52.336;21.200;2022-08-16T01:07:34;17.10;;;15.40;;
25509;SDS011;13413;52.336;21.200;2022-08-16T01:10:54;17.20;;;15.50;;
25509;SDS011;13413;52.336;21.200;2022-08-16T01:14:16;17.40;;;15.30;;
25509;SDS011;13413;52.336;21.200;2022-08-16T01:17:41;16.70;;;14.90;;
25509;SDS011;13413;52.336;21.200;2022-08-16T01:21:09;17.30;;;15.60;;
25509;SDS011;13413;52.336;21.200;2022-08-16T01:24:37;18.00;;;16.30;;
25509;SDS011;13413;52.336;21.200;2022-08-16T01:28:01;17.50;;;16.00;;
25509;SDS011;13413;52.336;21.200;2022-08-16T01:31:24;17.50;;;15.70;;
25509;SDS011;13413;52.336;21.200;2022-08-16T01:34:45;16.30;;;14.90;;
25509;SDS011;13413;52.336;21.200;2022-08-16T01:38:17;17.80;;;15.30;;
25509;SDS011;13413;52.336;21.200;2022-08-16T01:41:39;16.10;;;14.40;;
25509;SDS011;13413;52.336;21.200;2022-08-16T01:45:00;17.50;;;15.40;;
25509;SDS011;13413;52.336;21.200;2022-08-16T01:48:20;17.80;;;15.70;;
25509;SDS011;13413;52.336;21.200;2022-08-16T01:51:42;17.70;;;15.20;;
25509;SDS011;13413;52.336;21.200;2022-08-16T01:55:05;17.00;;;15.10;;
25509;SDS011;13413;52.336;21.200;2022-08-16T01:58:26;16.40;;;14.80;;
25509;SDS011;13413;52.336;21.200;2022-08-16T02:01:46;16.50;;;14.90;;
25509;SDS011;13413;52.336;21.200;2022-08-16T02:05:07;16.90;;;15.40;;
25509;SDS011;13413;52.336;21.200;2022-08-16T02:08:28;20.80;;;18.70;;
25509;SDS011;13413;52.336;21.200;2022-08-16T02:11:48;16.90;;;15.20;;
25509;SDS011;13413;52.336;21.200;2022-08-16T02:15:10;19.10;;;17.30;;
25509;SDS011;13413;52.336;21.200;2022-08-16T02:18:29;17.80;;;16.00;;
25509;SDS011;13413;52.336;21.200;2022-08-16T02:21:50;16.80;;;15.30;;
25509;SDS011;13413;52.336;21.200;2022-08-16T02:25:12;16.80;;;15.20;;
25509;SDS011;13413;52.336;21.200;2022-08-16T02:28:32;17.60;;;15.60;;
25509;SDS011;13413;52.336;21.200;2022-08-16T02:31:52;15.80;;;14.50;;
25509;SDS011;13413;52.336;21.200;2022-08-16T02:35:12;17.00;;;15.20;;
25509;SDS011;13413;52.336;21.200;2022-08-16T02:38:32;15.90;;;14.50;;
25509;SDS011;13413;52.336;21.200;2022-08-16T02:41:52;16.10;;;14.50;;
25509;SDS011;13413;52.336;21.200;2022-08-16T02:45:11;16.90;;;15.30;;
25509;SDS011;13413;52.336;21.200;2022-08-16T02:48:32;15.40;;;13.90;;
25509;SDS011;13413;52.336;21.200;2022-08-16T02:51:52;16.40;;;14.80;;
25509;SDS011;13413;52.336;21.200;2022-08-16T02:55:11;17.00;;;14.90;;
25509;SDS011;13413;52.336;21.200;2022-08-16T02:58:31;17.70;;;15.90;;
25509;SDS011;13413;52.336;21.200;2022-08-16T03:01:50;19.30;;;16.80;;
25509;SDS011;13413;52.336;21.200;2022-08-16T03:05:11;18.20;;;16.50;;
25509;SDS011;13413;52.336;21.200;2022-08-16T03:08:31;17.00;;;15.40;;
25509;SDS011;13413;52.336;21.200;2022-08-16T03:11:50;17.10;;;15.50;;
25509;SDS011;13413;52.336;21.200;2022-08-16T03:15:10;17.60;;;15.80;;
25509;SDS011;13413;52.336;21.200;2022-08-16T03:18:31;18.00;;;16.20;;
25509;SDS011;13413;52.336;21.200;2022-08-16T03:21:50;16.50;;;15.10;;
25509;SDS011;13413;52.336;21.200;2022-08-16T03:25:10;17.90;;;16.20;;
25509;SDS011;13413;52.336;21.200;2022-08-16T03:28:31;17.90;;;15.90;;
25509;SDS011;13413;52.336;21.200;2022-08-16T03:31:51;18.10;;;16.30;;
25509;SDS011;13413;52.336;21.200;2022-08-16T03:38:34;18.10;;;16.30;;
25509;SDS011;13413;52.336;21.200;2022-08-16T03:41:53;17.70;;;15.50;;
25509;SDS011;13413;52.336;21.200;2022-08-16T03:45:12;17.20;;;15.40;;
25509;SDS011;13413;52.336;21.200;2022-08-16T03:48:44;17.20;;;15.50;;
25509;SDS011;13413;52.336;21.200;2022-08-16T03:52:04;20.20;;;16.00;;
25509;SDS011;13413;52.336;21.200;2022-08-16T03:55:23;18.30;;;15.40;;
25509;SDS011;13413;52.336;21.200;2022-08-16T03:58:42;16.60;;;15.00;;
25509;SDS011;13413;52.336;21.200;2022-08-16T04:02:01;15.90;;;14.30;;
25509;SDS011;13413;52.336;21.200;2022-08-16T04:05:22;17.60;;;15.70;;
25509;SDS011;13413;52.336;21.200;2022-08-16T04:08:41;18.40;;;15.80;;
25509;SDS011;13413;52.336;21.200;2022-08-16T04:12:00;17.90;;;16.20;;
25509;SDS011;13413;52.336;21.200;2022-08-16T04:15:19;19.60;;;15.20;;
25509;SDS011;13413;52.336;21.200;2022-08-16T04:18:40;18.20;;;16.30;;
25509;SDS011;13413;52.336;21.200;2022-08-16T04:22:00;16.30;;;14.70;;
25509;SDS011;13413;52.336;21.200;2022-08-16T04:28:40;23.20;;;15.10;;
25509;SDS011;13413;52.336;21.200;2022-08-16T04:31:59;17.90;;;15.00;;
25509;SDS011;13413;52.336;21.200;2022-08-16T04:35:20;19.40;;;15.10;;
25509;SDS011;13413;52.336;21.200;2022-08-16T04:38:39;18.10;;;16.10;;
25509;SDS011;13413;52.336;21.200;2022-08-16T04:41:58;17.70;;;15.70;;
25509;SDS011;13413;52.336;21.200;2022-08-16T04:45:18;22.10;;;16.30;;
25509;SDS011;13413;52.336;21.200;2022-08-16T04:48:39;18.20;;;15.80;;
25509;SDS011;13413;52.336;21.200;2022-08-16T04:51:59;16.00;;;14.50;;
25509;SDS011;13413;52.336;21.200;2022-08-16T04:55:21;20.20;;;16.10;;
25509;SDS011;13413;52.336;21.200;2022-08-16T04:58:41;17.90;;;16.10;;
25509;SDS011;13413;52.336;21.200;2022-08-16T05:02:01;20.30;;;15.50;;
25509;SDS011;13413;52.336;21.200;2022-08-16T05:05:21;16.50;;;14.90;;
25509;SDS011;13413;52.336;21.200;2022-08-16T05:08:40;17.90;;;14.50;;
25509;SDS011;13413;52.336;21.200;2022-08-16T05:11:59;17.30;;;15.50;;
25509;SDS011;13413;52.336;21.200;2022-08-16T05:15:20;17.10;;;15.30;;
25509;SDS011;13413;52.336;21.200;2022-08-16T05:18:38;16.60;;;14.50;;
25509;SDS011;13413;52.336;21.200;2022-08-16T05:21:58;16.00;;;14.50;;
25509;SDS011;13413;52.336;21.200;2022-08-16T05:25:17;19.40;;;15.50;;
25509;SDS011;13413;52.336;21.200;2022-08-16T05:28:38;16.90;;;15.10;;
25509;SDS011;13413;52.336;21.200;2022-08-16T05:31:57;19.10;;;16.00;;
25509;SDS011;13413;52.336;21.200;2022-08-16T05:35:17;18.00;;;14.30;;
25509;SDS011;13413;52.336;21.200;2022-08-16T05:38:37;23.70;;;16.50;;
25509;SDS011;13413;52.336;21.200;2022-08-16T05:41:57;17.80;;;15.00;;
25509;SDS011;13413;52.336;21.200;2022-08-16T05:45:16;16.60;;;15.10;;
25509;SDS011;13413;52.336;21.200;2022-08-16T05:48:37;16.90;;;15.10;;
25509;SDS011;13413;52.336;21.200;2022-08-16T05:51:56;19.30;;;14.60;;
25509;SDS011;13413;52.336;21.200;2022-08-16T05:55:15;15.90;;;14.20;;
25509;SDS011;13413;52.336;21.200;2022-08-16T05:58:34;15.60;;;13.80;;
25509;SDS011;13413;52.336;21.200;2022-08-16T06:01:54;17.00;;;15.00;;
25509;SDS011;13413;52.336;21.200;2022-08-16T06:05:13;15.80;;;14.20;;
25509;SDS011;13413;52.336;21.200;2022-08-16T06:08:33;19.70;;;14.90;;
25509;SDS011;13413;52.336;21.200;2022-08-16T06:11:52;18.50;;;14.30;;
25509;SDS011;13413;52.336;21.200;2022-08-16T06:15:13;16.00;;;14.40;;
25509;SDS011;13413;52.336;21.200;2022-08-16T06:18:36;16.60;;;15.00;;
25509;SDS011;13413;52.336;21.200;2022-08-16T06:21:55;17.40;;;15.00;;
25509;SDS011;13413;52.336;21.200;2022-08-16T06:25:15;15.90;;;14.20;;
25509;SDS011;13413;52.336;21.200;2022-08-16T06:28:34;16.90;;;14.20;;
25509;SDS011;13413;52.336;21.200;2022-08-16T06:31:53;15.80;;;14.30;;
25509;SDS011;13413;52.336;21.200;2022-08-16T06:35:14;16.00;;;13.90;;
25509;SDS011;13413;52.336;21.200;2022-08-16T06:38:34;17.80;;;14.30;;
25509;SDS011;13413;52.336;21.200;2022-08-16T06:41:52;16.90;;;14.20;;
25509;SDS011;13413;52.336;21.200;2022-08-16T06:45:11;15.00;;;13.60;;
25509;SDS011;13413;52.336;21.200;2022-08-16T06:48:32;15.00;;;13.40;;
25509;SDS011;13413;52.336;21.200;2022-08-16T06:51:53;16.30;;;14.40;;
25509;SDS011;13413;52.336;21.200;2022-08-16T06:55:14;15.30;;;13.60;;
25509;SDS011;13413;52.336;21.200;2022-08-16T06:58:33;26.20;;;13.10;;
25509;SDS011;13413;52.336;21.200;2022-08-16T07:01:52;14.70;;;13.30;;
25509;SDS011;13413;52.336;21.200;2022-08-16T07:05:13;15.10;;;13.50;;
25509;SDS011;13413;52.336;21.200;2022-08-16T07:08:33;15.00;;;13.40;;
25509;SDS011;13413;52.336;21.200;2022-08-16T07:11:52;13.90;;;12.70;;
25509;SDS011;13413;52.336;21.200;2022-08-16T07:15:12;15.70;;;13.10;;
25509;SDS011;13413;52.336;21.200;2022-08-16T07:18:32;15.60;;;13.30;;
25509;SDS011;13413;52.336;21.200;2022-08-16T07:21:52;14.00;;;12.30;;
25509;SDS011;13413;52.336;21.200;2022-08-16T07:25:12;13.70;;;12.20;;
25509;SDS011;13413;52.336;21.200;2022-08-16T07:28:33;14.60;;;13.00;;
25509;SDS011;13413;52.336;21.200;2022-08-16T07:31:52;15.70;;;13.10;;
25509;SDS011;13413;52.336;21.200;2022-08-16T07:35:12;14.50;;;12.70;;
25509;SDS011;13413;52.336;21.200;2022-08-16T07:38:32;14.00;;;12.60;;
25509;SDS011;13413;52.336;21.200;2022-08-16T07:41:52;14.20;;;12.80;;
25509;SDS011;13413;52.336;21.200;2022-08-16T07:45:13;17.20;;;13.50;;
25509;SDS011;13413;52.336;21.200;2022-08-16T07:48:32;14.50;;;12.10;;
25509;SDS011;13413;52.336;21.200;2022-08-16T07:51:52;14.00;;;11.60;;
25509;SDS011;13413;52.336;21.200;2022-08-16T07:55:12;15.40;;;12.20;;
25509;SDS011;13413;52.336;21.200;2022-08-16T07:58:34;13.80;;;12.30;;
25509;SDS011;13413;52.336;21.200;2022-08-16T08:01:53;14.70;;;11.90;;
25509;SDS011;13413;52.336;21.200;2022-08-16T08:05:13;12.00;;;10.90;;
25509;SDS011;13413;52.336;21.200;2022-08-16T08:08:33;13.60;;;11.30;;
25509;SDS011;13413;52.336;21.200;2022-08-16T08:11:51;13.30;;;11.80;;
25509;SDS011;13413;52.336;21.200;2022-08-16T08:15:11;14.50;;;12.10;;
25509;SDS011;13413;52.336;21.200;2022-08-16T08:18:30;14.00;;;11.70;;
25509;SDS011;13413;52.336;21.200;2022-08-16T08:21:51;13.40;;;12.10;;
25509;SDS011;13413;52.336;21.200;2022-08-16T08:25:10;15.90;;;12.00;;
25509;SDS011;13413;52.336;21.200;2022-08-16T08:28:31;12.70;;;11.60;;
25509;SDS011;13413;52.336;21.200;2022-08-16T08:31:52;14.20;;;12.70;;
25509;SDS011;13413;52.336;21.200;2022-08-16T08:35:11;16.00;;;12.50;;
25509;SDS011;13413;52.336;21.200;2022-08-16T08:38:32;14.90;;;12.80;;
25509;SDS011;13413;52.336;21.200;2022-08-16T08:41:52;17.20;;;12.10;;
25509;SDS011;13413;52.336;21.200;2022-08-16T08:45:11;14.00;;;12.60;;
25509;SDS011;13413;52.336;21.200;2022-08-16T08:48:31;15.90;;;13.10;;
25509;SDS011;13413;52.336;21.200;2022-08-16T08:51:51;14.90;;;13.30;;
25509;SDS011;13413;52.336;21.200;2022-08-16T08:55:10;13.50;;;12.20;;
25509;SDS011;13413;52.336;21.200;2022-08-16T08:58:31;14.40;;;13.10;;
25509;SDS011;13413;52.336;21.200;2022-08-16T09:01:51;14.50;;;12.90;;
25509;SDS011;13413;52.336;21.200;2022-08-16T09:05:12;16.00;;;13.80;;
25509;SDS011;13413;52.336;21.200;2022-08-16T09:08:33;14.40;;;12.70;;
25509;SDS011;13413;52.336;21.200;2022-08-16T09:11:53;13.60;;;12.20;;
25509;SDS011;13413;52.336;21.200;2022-08-16T09:15:13;14.20;;;12.70;;
25509;SDS011;13413;52.336;21.200;2022-08-16T09:18:34;14.60;;;12.80;;
25509;SDS011;13413;52.336;21.200;2022-08-16T09:21:53;16.70;;;12.10;;
25509;SDS011;13413;52.336;21.200;2022-08-16T09:25:14;19.50;;;12.60;;
25509;SDS011;13413;52.336;21.200;2022-08-16T09:28:34;14.40;;;11.70;;
25509;SDS011;13413;52.336;21.200;2022-08-16T09:31:55;13.80;;;12.40;;
25509;SDS011;13413;52.336;21.200;2022-08-16T09:35:15;14.80;;;13.00;;
25509;SDS011;13413;52.336;21.200;2022-08-16T09:38:35;13.40;;;12.10;;
25509;SDS011;13413;52.336;21.200;2022-08-16T09:41:56;14.10;;;12.30;;
25509;SDS011;13413;52.336;21.200;2022-08-16T09:48:36;14.50;;;12.60;;
25509;SDS011;13413;52.336;21.200;2022-08-16T09:51:56;14.30;;;12.90;;
25509;SDS011;13413;52.336;21.200;2022-08-16T09:55:16;13.50;;;12.20;;
25509;SDS011;13413;52.336;21.200;2022-08-16T09:58:35;12.70;;;11.50;;
25509;SDS011;13413;52.336;21.200;2022-08-16T10:01:55;13.10;;;11.10;;
25509;SDS011;13413;52.336;21.200;2022-08-16T10:05:16;19.20;;;12.20;;
25509;SDS011;13413;52.336;21.200;2022-08-16T10:08:37;13.50;;;12.20;;
25509;SDS011;13413;52.336;21.200;2022-08-16T10:11:57;13.70;;;11.70;;
25509;SDS011;13413;52.336;21.200;2022-08-16T10:15:17;13.20;;;11.90;;
25509;SDS011;13413;52.336;21.200;2022-08-16T10:18:40;14.50;;;11.70;;
25509;SDS011;13413;52.336;21.200;2022-08-16T10:22:00;14.50;;;12.10;;
25509;SDS011;13413;52.336;21.200;2022-08-16T10:25:21;13.00;;;11.60;;
25509;SDS011;13413;52.336;21.200;2022-08-16T10:28:40;16.80;;;11.60;;
25509;SDS011;13413;52.336;21.200;2022-08-16T10:31:59;13.10;;;11.10;;
25509;SDS011;13413;52.336;21.200;2022-08-16T10:35:18;12.60;;;11.20;;
25509;SDS011;13413;52.336;21.200;2022-08-16T10:38:37;18.70;;;12.80;;
25509;SDS011;13413;52.336;21.200;2022-08-16T10:41:59;17.50;;;12.80;;
25509;SDS011;13413;52.336;21.200;2022-08-16T10:45:18;13.80;;;11.80;;
25509;SDS011;13413;52.336;21.200;2022-08-16T10:48:37;18.00;;;14.30;;
25509;SDS011;13413;52.336;21.200;2022-08-16T10:52:00;13.90;;;12.60;;
25509;SDS011;13413;52.336;21.200;2022-08-16T10:55:21;14.40;;;12.40;;
25509;SDS011;13413;52.336;21.200;2022-08-16T10:58:42;16.00;;;13.70;;
25509;SDS011;13413;52.336;21.200;2022-08-16T11:02:02;13.40;;;12.20;;
25509;SDS011;13413;52.336;21.200;2022-08-16T11:05:21;21.00;;;13.50;;
25509;SDS011;13413;52.336;21.200;2022-08-16T11:08:41;16.60;;;13.00;;
25509;SDS011;13413;52.336;21.200;2022-08-16T11:12:00;17.00;;;13.60;;
25509;SDS011;13413;52.336;21.200;2022-08-16T11:15:21;17.10;;;12.70;;
25509;SDS011;13413;52.336;21.200;2022-08-16T11:18:41;17.50;;;12.60;;
25509;SDS011;13413;52.336;21.200;2022-08-16T11:22:01;14.70;;;12.90;;
25509;SDS011;13413;52.336;21.200;2022-08-16T11:25:21;14.40;;;12.50;;
25509;SDS011;13413;52.336;21.200;2022-08-16T11:28:42;14.30;;;11.80;;
25509;SDS011;13413;52.336;21.200;2022-08-16T11:32:02;14.10;;;12.70;;
25509;SDS011;13413;52.336;21.200;2022-08-16T11:35:24;13.90;;;12.40;;
25509;SDS011;13413;52.336;21.200;2022-08-16T11:38:45;14.10;;;12.80;;
25509;SDS011;13413;52.336;21.200;2022-08-16T11:42:05;17.30;;;14.10;;
25509;SDS011;13413;52.336;21.200;2022-08-16T11:45:26;14.00;;;12.60;;
25509;SDS011;13413;52.336;21.200;2022-08-16T11:48:45;15.50;;;13.50;;
25509;SDS011;13413;52.336;21.200;2022-08-16T11:52:06;16.70;;;14.70;;
25509;SDS011;13413;52.336;21.200;2022-08-16T11:55:25;14.40;;;13.10;;
25509;SDS011;13413;52.336;21.200;2022-08-16T11:58:45;16.20;;;14.60;;
25509;SDS011;13413;52.336;21.200;2022-08-16T12:02:05;17.00;;;14.70;;
25509;SDS011;13413;52.336;21.200;2022-08-16T12:05:26;17.30;;;14.90;;
25509;SDS011;13413;52.336;21.200;2022-08-16T12:08:47;16.20;;;13.60;;
25509;SDS011;13413;52.336;21.200;2022-08-16T12:12:07;15.10;;;13.60;;
25509;SDS011;13413;52.336;21.200;2022-08-16T12:15:27;15.10;;;13.50;;
25509;SDS011;13413;52.336;21.200;2022-08-16T12:18:47;19.10;;;13.50;;
25509;SDS011;13413;52.336;21.200;2022-08-16T12:22:07;15.00;;;13.50;;
25509;SDS011;13413;52.336;21.200;2022-08-16T12:25:27;19.30;;;13.70;;
25509;SDS011;13413;52.336;21.200;2022-08-16T12:28:49;15.30;;;13.60;;
25509;SDS011;13413;52.336;21.200;2022-08-16T12:32:08;23.00;;;14.00;;
25509;SDS011;13413;52.336;21.200;2022-08-16T12:35:28;21.80;;;14.40;;
25509;SDS011;13413;52.336;21.200;2022-08-16T12:38:49;15.60;;;13.50;;
25509;SDS011;13413;52.336;21.200;2022-08-16T12:42:10;23.90;;;15.40;;
25509;SDS011;13413;52.336;21.200;2022-08-16T12:45:31;18.40;;;14.70;;
25509;SDS011;13413;52.336;21.200;2022-08-16T12:48:53;21.90;;;15.00;;
25509;SDS011;13413;52.336;21.200;2022-08-16T12:52:14;24.20;;;16.70;;
25509;SDS011;13413;52.336;21.200;2022-08-16T12:55:34;27.90;;;17.50;;
25509;SDS011;13413;52.336;21.200;2022-08-16T12:58:54;16.30;;;14.70;;
25509;SDS011;13413;52.336;21.200;2022-08-16T13:02:15;23.20;;;16.50;;
25509;SDS011;13413;52.336;21.200;2022-08-16T13:05:36;17.30;;;14.90;;
25509;SDS011;13413;52.336;21.200;2022-08-16T13:08:56;17.00;;;15.30;;
25509;SDS011;13413;52.336;21.200;2022-08-16T13:12:16;18.30;;;15.00;;
25509;SDS011;13413;52.336;21.200;2022-08-16T13:15:36;15.80;;;14.30;;
25509;SDS011;13413;52.336;21.200;2022-08-16T13:18:57;17.00;;;13.80;;
25509;SDS011;13413;52.336;21.200;2022-08-16T13:22:16;15.70;;;13.40;;
25509;SDS011;13413;52.336;21.200;2022-08-16T13:25:37;14.90;;;13.00;;
25509;SDS011;13413;52.336;21.200;2022-08-16T13:28:58;18.40;;;13.70;;
25509;SDS011;13413;52.336;21.200;2022-08-16T13:32:17;15.60;;;14.10;;
25509;SDS011;13413;52.336;21.200;2022-08-16T13:35:37;14.20;;;12.80;;
25509;SDS011;13413;52.336;21.200;2022-08-16T13:38:57;19.40;;;13.90;;
25509;SDS011;13413;52.336;21.200;2022-08-16T13:42:17;15.70;;;12.50;;
25509;SDS011;13413;52.336;21.200;2022-08-16T13:45:37;23.50;;;13.30;;
25509;SDS011;13413;52.336;21.200;2022-08-16T13:49:00;17.80;;;13.40;;
25509;SDS011;13413;52.336;21.200;2022-08-16T13:52:21;15.50;;;12.70;;
25509;SDS011;13413;52.336;21.200;2022-08-16T13:55:42;23.50;;;13.30;;
25509;SDS011;13413;52.336;21.200;2022-08-16T13:59:02;19.90;;;12.30;;
25509;SDS011;13413;52.336;21.200;2022-08-16T14:02:24;15.00;;;12.80;;
25509;SDS011;13413;52.336;21.200;2022-08-16T14:05:44;20.70;;;12.40;;
25509;SDS011;13413;52.336;21.200;2022-08-16T14:09:03;15.10;;;12.30;;
25509;SDS011;13413;52.336;21.200;2022-08-16T14:12:23;14.40;;;11.30;;
25509;SDS011;13413;52.336;21.200;2022-08-16T14:15:45;14.10;;;12.70;;
25509;SDS011;13413;52.336;21.200;2022-08-16T14:19:04;16.20;;;12.00;;
25509;SDS011;13413;52.336;21.200;2022-08-16T14:22:25;13.10;;;11.90;;
25509;SDS011;13413;52.336;21.200;2022-08-16T14:25:47;18.90;;;13.40;;
25509;SDS011;13413;52.336;21.200;2022-08-16T14:29:08;14.50;;;12.50;;
25509;SDS011;13413;52.336;21.200;2022-08-16T14:32:29;14.80;;;12.90;;
25509;SDS011;13413;52.336;21.200;2022-08-16T14:35:48;14.70;;;12.90;;
25509;SDS011;13413;52.336;21.200;2022-08-16T14:42:39;15.00;;;12.20;;
25509;SDS011;13413;52.336;21.200;2022-08-16T14:46:00;14.00;;;12.50;;
25509;SDS011;13413;52.336;21.200;2022-08-16T14:49:20;13.40;;;12.10;;
25509;SDS011;13413;52.336;21.200;2022-08-16T14:52:39;17.90;;;12.90;;
25509;SDS011;13413;52.336;21.200;2022-08-16T14:56:00;13.50;;;12.20;;
25509;SDS011;13413;52.336;21.200;2022-08-16T14:59:19;16.50;;;13.10;;
25509;SDS011;13413;52.336;21.200;2022-08-16T15:02:40;14.60;;;13.30;;
25509;SDS011;13413;52.336;21.200;2022-08-16T15:05:59;18.60;;;12.50;;
25509;SDS011;13413;52.336;21.200;2022-08-16T15:09:18;14.00;;;12.60;;
25509;SDS011;13413;52.336;21.200;2022-08-16T15:12:38;17.70;;;11.20;;
25509;SDS011;13413;52.336;21.200;2022-08-16T15:15:57;13.60;;;11.00;;
25509;SDS011;13413;52.336;21.200;2022-08-16T15:19:16;12.10;;;10.80;;
25509;SDS011;13413;52.336;21.200;2022-08-16T15:22:38;14.70;;;10.10;;
25509;SDS011;13413;52.336;21.200;2022-08-16T15:26:02;15.30;;;10.10;;
25509;SDS011;13413;52.336;21.200;2022-08-16T15:29:22;16.60;;;9.80;;
25509;SDS011;13413;52.336;21.200;2022-08-16T15:32:42;12.20;;;11.00;;
25509;SDS011;13413;52.336;21.200;2022-08-16T15:36:02;14.60;;;9.90;;
25509;SDS011;13413;52.336;21.200;2022-08-16T15:39:23;10.20;;;9.00;;
25509;SDS011;13413;52.336;21.200;2022-08-16T15:42:46;9.80;;;8.30;;
25509;SDS011;13413;52.336;21.200;2022-08-16T15:46:08;10.90;;;9.00;;
25509;SDS011;13413;52.336;21.200;2022-08-16T15:49:27;11.20;;;8.70;;
25509;SDS011;13413;52.336;21.200;2022-08-16T15:52:47;11.00;;;9.70;;
25509;SDS011;13413;52.336;21.200;2022-08-16T15:56:06;15.90;;;9.40;;
25509;SDS011;13413;52.336;21.200;2022-08-16T15:59:26;11.20;;;9.10;;
25509;SDS011;13413;52.336;21.200;2022-08-16T16:02:46;13.70;;;9.20;;
25509;SDS011;13413;52.336;21.200;2022-08-16T16:06:16;13.80;;;9.70;;
25509;SDS011;13413;52.336;21.200;2022-08-16T16:09:35;11.00;;;9.40;;
25509;SDS011;13413;52.336;21.200;2022-08-16T16:12:56;10.40;;;9.20;;
25509;SDS011;13413;52.336;21.200;2022-08-16T16:16:17;13.40;;;10.30;;
25509;SDS011;13413;52.336;21.200;2022-08-16T16:19:37;12.70;;;9.60;;
25509;SDS011;13413;52.336;21.200;2022-08-16T16:22:57;10.80;;;9.30;;
25509;SDS011;13413;52.336;21.200;2022-08-16T16:26:21;10.00;;;8.20;;
25509;SDS011;13413;52.336;21.200;2022-08-16T16:29:39;11.10;;;8.20;;
25509;SDS011;13413;52.336;21.200;2022-08-16T16:32:58;11.40;;;7.90;;
25509;SDS011;13413;52.336;21.200;2022-08-16T16:36:20;12.40;;;7.50;;
25509;SDS011;13413;52.336;21.200;2022-08-16T16:39:39;13.00;;;7.80;;
25509;SDS011;13413;52.336;21.200;2022-08-16T16:42:58;12.30;;;7.10;;
25509;SDS011;13413;52.336;21.200;2022-08-16T16:46:19;9.20;;;7.70;;
25509;SDS011;13413;52.336;21.200;2022-08-16T16:49:40;8.40;;;7.60;;
25509;SDS011;13413;52.336;21.200;2022-08-16T16:53:00;10.80;;;8.10;;
25509;SDS011;13413;52.336;21.200;2022-08-16T16:56:21;13.00;;;9.40;;
25509;SDS011;13413;52.336;21.200;2022-08-16T16:59:42;12.00;;;10.00;;
25509;SDS011;13413;52.336;21.200;2022-08-16T17:03:00;13.10;;;9.60;;
25509;SDS011;13413;52.336;21.200;2022-08-16T17:06:21;11.40;;;8.30;;
25509;SDS011;13413;52.336;21.200;2022-08-16T17:09:41;26.70;;;9.90;;
25509;SDS011;13413;52.336;21.200;2022-08-16T17:13:02;13.50;;;9.40;;
25509;SDS011;13413;52.336;21.200;2022-08-16T17:16:22;16.60;;;9.80;;
25509;SDS011;13413;52.336;21.200;2022-08-16T17:19:41;15.60;;;9.60;;
25509;SDS011;13413;52.336;21.200;2022-08-16T17:23:01;12.70;;;10.10;;
25509;SDS011;13413;52.336;21.200;2022-08-16T17:26:22;16.70;;;10.00;;
25509;SDS011;13413;52.336;21.200;2022-08-16T17:29:41;17.10;;;10.50;;
25509;SDS011;13413;52.336;21.200;2022-08-16T17:33:01;16.30;;;10.80;;
25509;SDS011;13413;52.336;21.200;2022-08-16T17:36:23;17.00;;;11.20;;
25509;SDS011;13413;52.336;21.200;2022-08-16T17:39:43;21.90;;;12.10;;
25509;SDS011;13413;52.336;21.200;2022-08-16T17:43:03;14.50;;;12.30;;
25509;SDS011;13413;52.336;21.200;2022-08-16T17:46:23;19.40;;;12.70;;
25509;SDS011;13413;52.336;21.200;2022-08-16T17:49:42;21.10;;;14.70;;
25509;SDS011;13413;52.336;21.200;2022-08-16T17:53:03;25.70;;;15.30;;
25509;SDS011;13413;52.336;21.200;2022-08-16T17:56:22;24.10;;;13.90;;
25509;SDS011;13413;52.336;21.200;2022-08-16T17:59:42;19.80;;;14.10;;
25509;SDS011;13413;52.336;21.200;2022-08-16T18:03:01;18.60;;;14.20;;
25509;SDS011;13413;52.336;21.200;2022-08-16T18:06:22;20.30;;;14.40;;
25509;SDS011;13413;52.336;21.200;2022-08-16T18:09:45;15.00;;;13.40;;
25509;SDS011;13413;52.336;21.200;2022-08-16T18:13:06;17.00;;;12.30;;
25509;SDS011;13413;52.336;21.200;2022-08-16T18:16:25;15.40;;;13.80;;
25509;SDS011;13413;52.336;21.200;2022-08-16T18:23:05;15.50;;;12.70;;
25509;SDS011;13413;52.336;21.200;2022-08-16T18:26:28;15.30;;;13.80;;
25509;SDS011;13413;52.336;21.200;2022-08-16T18:29:48;17.80;;;15.50;;
25509;SDS011;13413;52.336;21.200;2022-08-16T18:33:22;18.50;;;16.00;;
25509;SDS011;13413;52.336;21.200;2022-08-16T18:36:42;17.70;;;15.00;;
25509;SDS011;13413;52.336;21.200;2022-08-16T18:40:02;17.30;;;14.70;;
25509;SDS011;13413;52.336;21.200;2022-08-16T18:43:22;21.00;;;15.60;;
25509;SDS011;13413;52.336;21.200;2022-08-16T18:46:42;23.10;;;15.30;;
25509;SDS011;13413;52.336;21.200;2022-08-16T18:50:03;19.70;;;15.20;;
25509;SDS011;13413;52.336;21.200;2022-08-16T18:53:24;16.70;;;14.20;;
25509;SDS011;13413;52.336;21.200;2022-08-16T18:56:45;20.00;;;16.00;;
25509;SDS011;13413;52.336;21.200;2022-08-16T19:00:05;20.40;;;15.30;;
25509;SDS011;13413;52.336;21.200;2022-08-16T19:03:27;18.10;;;14.90;;
25509;SDS011;13413;52.336;21.200;2022-08-16T19:06:48;18.80;;;14.90;;
25509;SDS011;13413;52.336;21.200;2022-08-16T19:10:09;20.30;;;14.40;;
25509;SDS011;13413;52.336;21.200;2022-08-16T19:13:29;18.50;;;15.90;;
25509;SDS011;13413;52.336;21.200;2022-08-16T19:16:50;21.30;;;15.00;;
25509;SDS011;13413;52.336;21.200;2022-08-16T19:20:09;23.80;;;15.40;;
25509;SDS011;13413;52.336;21.200;2022-08-16T19:23:32;22.70;;;16.30;;
25509;SDS011;13413;52.336;21.200;2022-08-16T19:26:53;21.50;;;15.70;;
25509;SDS011;13413;52.336;21.200;2022-08-16T19:30:12;22.40;;;15.50;;
25509;SDS011;13413;52.336;21.200;2022-08-16T19:33:32;18.00;;;15.40;;